createdAt,value
2023-01-28T00:01:33.074Z,8.77
2023-01-28T00:04:21.127Z,5.28
2023-01-28T00:07:09.404Z,8.13
2023-01-28T00:09:57.118Z,4.75
2023-01-28T00:12:46.814Z,6.95
2023-01-28T00:15:34.822Z,5.38
2023-01-28T00:18:22.502Z,6.70
2023-01-28T00:21:13.192Z,3.88
2023-01-28T00:24:01.196Z,5.07
2023-01-28T00:26:48.924Z,6.25
2023-01-28T00:29:38.905Z,6.32
2023-01-28T00:32:26.875Z,5.97
2023-01-28T00:35:15.494Z,6.00
2023-01-28T00:38:04.233Z,6.60
2023-01-28T00:40:51.993Z,5.43
2023-01-28T00:43:40.816Z,6.15
2023-01-28T00:46:30.079Z,6.05
2023-01-28T00:49:17.967Z,6.85
2023-01-28T00:52:06.275Z,5.80
2023-01-28T00:54:53.921Z,5.63
2023-01-28T00:57:41.890Z,6.35
2023-01-28T01:00:29.787Z,7.25
2023-01-28T01:03:20.133Z,6.63
2023-01-28T01:06:08.952Z,5.78
2023-01-28T01:08:57.096Z,5.63
2023-01-28T01:11:44.914Z,6.68
2023-01-28T01:14:33.008Z,5.05
2023-01-28T01:17:21.682Z,6.05
2023-01-28T01:20:14.997Z,6.38
2023-01-28T01:23:02.727Z,5.50
2023-01-28T01:25:51.953Z,5.22
2023-01-28T01:28:39.945Z,6.18
2023-01-28T01:31:27.553Z,5.60
2023-01-28T01:34:15.630Z,5.68
2023-01-28T01:37:08.709Z,7.53
2023-01-28T01:39:56.961Z,9.23
2023-01-28T01:42:44.985Z,8.68
2023-01-28T01:45:38.361Z,7.93
2023-01-28T01:51:26.538Z,8.50
2023-01-28T01:54:17.020Z,6.20
2023-01-28T01:57:07.625Z,8.32
2023-01-28T01:59:58.377Z,8.63
2023-01-28T02:02:49.587Z,10.20
2023-01-28T02:05:38.332Z,9.55
2023-01-28T02:08:27.991Z,10.43
2023-01-28T02:11:19.317Z,10.30
2023-01-28T02:14:07.734Z,10.48
2023-01-28T02:16:55.880Z,9.55
2023-01-28T02:19:49.903Z,13.07
2023-01-28T02:23:01.700Z,11.55
2023-01-28T02:26:24.009Z,12.05
2023-01-28T02:29:21.215Z,13.35
2023-01-28T02:32:15.743Z,13.35
2023-01-28T02:35:09.364Z,13.70
2023-01-28T02:38:01.627Z,13.13
2023-01-28T02:41:07.068Z,10.55
2023-01-28T02:43:54.781Z,14.85
2023-01-28T02:47:01.861Z,12.63
2023-01-28T02:49:52.871Z,11.80
2023-01-28T02:53:11.679Z,13.43
2023-01-28T02:56:07.734Z,11.70
2023-01-28T02:59:22.481Z,16.38
2023-01-28T03:02:20.321Z,12.50
2023-01-28T03:05:13.060Z,12.93
2023-01-28T03:08:01.366Z,12.70
2023-01-28T03:11:08.009Z,13.65
2023-01-28T03:14:13.244Z,15.75
2023-01-28T03:17:19.766Z,16.13
2023-01-28T03:20:28.087Z,14.15
2023-01-28T03:23:41.115Z,14.82
2023-01-28T03:26:50.607Z,13.43
2023-01-28T03:29:57.788Z,14.55
2023-01-28T03:33:04.851Z,14.65
2023-01-28T03:36:11.673Z,15.98
2023-01-28T03:38:59.572Z,13.13
2023-01-28T03:42:01.806Z,13.60
2023-01-28T03:44:53.102Z,14.85
2023-01-28T03:47:40.986Z,13.40
2023-01-28T03:50:28.630Z,12.63
2023-01-28T03:53:18.872Z,16.45
2023-01-28T03:56:07.294Z,16.98
2023-01-28T03:58:56.999Z,15.27
2023-01-28T04:01:45.125Z,17.02
2023-01-28T04:04:33.330Z,17.50
2023-01-28T04:07:21.260Z,16.95
2023-01-28T04:10:11.873Z,18.52
2023-01-28T04:12:59.858Z,16.75
2023-01-28T04:15:48.875Z,13.95
2023-01-28T04:18:36.972Z,16.60
2023-01-28T04:21:24.624Z,15.73
2023-01-28T04:24:12.512Z,16.95
2023-01-28T04:27:01.931Z,14.93
2023-01-28T04:29:49.582Z,18.15
2023-01-28T04:32:37.548Z,16.63
2023-01-28T04:35:25.514Z,15.27
2023-01-28T04:38:13.189Z,17.73
2023-01-28T04:41:01.279Z,15.38
2023-01-28T04:43:50.459Z,16.63
2023-01-28T04:46:38.343Z,16.38
2023-01-28T04:49:26.476Z,15.90
2023-01-28T04:52:14.102Z,18.95
2023-01-28T04:55:03.119Z,17.35
2023-01-28T04:57:50.815Z,17.38
2023-01-28T05:00:40.309Z,16.75
2023-01-28T05:03:28.439Z,17.58
2023-01-28T05:06:16.139Z,15.63
2023-01-28T05:09:04.245Z,16.75
2023-01-28T05:11:52.016Z,18.10
2023-01-28T05:14:40.109Z,16.88
2023-01-28T05:17:30.345Z,18.48
2023-01-28T05:20:18.330Z,16.75
2023-01-28T05:23:06.234Z,14.60
2023-01-28T05:25:54.113Z,18.20
2023-01-28T05:28:41.943Z,16.95
2023-01-28T05:31:29.957Z,15.50
2023-01-28T05:34:19.430Z,17.77
2023-01-28T05:37:09.267Z,16.13
2023-01-28T05:39:57.086Z,21.80
2023-01-28T05:42:45.065Z,17.30
2023-01-28T05:45:33.448Z,12.38
2023-01-28T05:48:21.290Z,17.60
2023-01-28T05:51:10.683Z,16.40
2023-01-28T05:54:01.922Z,14.32
2023-01-28T05:56:49.922Z,16.95
2023-01-28T05:59:37.663Z,17.88
2023-01-28T06:02:26.005Z,14.98
2023-01-28T06:05:14.125Z,13.75
2023-01-28T06:08:03.446Z,18.90
2023-01-28T06:10:51.112Z,14.63
2023-01-28T06:13:40.184Z,15.35
2023-01-28T06:16:28.353Z,13.38
2023-01-28T06:19:18.601Z,17.85
2023-01-28T06:22:06.254Z,15.68
2023-01-28T06:24:55.496Z,16.48
2023-01-28T06:27:43.227Z,15.30
2023-01-28T06:30:31.459Z,12.65
2023-01-28T06:33:19.936Z,15.23
2023-01-28T06:36:08.791Z,14.15
2023-01-28T06:38:57.355Z,15.02
2023-01-28T06:41:46.721Z,13.57
2023-01-28T06:44:35.161Z,14.93
2023-01-28T06:47:22.846Z,14.40
2023-01-28T06:50:12.426Z,15.57
2023-01-28T06:53:00.745Z,14.20
2023-01-28T06:55:48.496Z,16.33
2023-01-28T06:58:38.010Z,18.02
2023-01-28T07:01:26.357Z,13.68
2023-01-28T07:04:14.214Z,16.15
2023-01-28T07:07:02.225Z,14.00
2023-01-28T07:09:50.273Z,15.05
2023-01-28T07:12:38.150Z,12.02
2023-01-28T07:15:27.553Z,13.82
2023-01-28T07:18:15.568Z,13.45
2023-01-28T07:21:04.552Z,12.32
2023-01-28T07:23:52.490Z,13.80
2023-01-28T07:26:40.298Z,13.68
2023-01-28T07:29:30.191Z,14.45
2023-01-28T07:32:19.550Z,14.27
2023-01-28T07:35:09.700Z,13.60
2023-01-28T07:37:59.647Z,11.63
2023-01-28T07:40:48.625Z,12.70
2023-01-28T07:43:36.617Z,14.88
2023-01-28T07:46:24.363Z,10.43
2023-01-28T07:49:13.823Z,14.88
2023-01-28T07:52:01.658Z,15.00
2023-01-28T07:54:51.663Z,11.70
2023-01-28T07:57:48.802Z,11.65
2023-01-28T08:00:38.310Z,12.52
2023-01-28T08:03:26.364Z,12.10
2023-01-28T08:06:15.526Z,10.25
2023-01-28T08:09:05.323Z,11.57
2023-01-28T08:11:54.369Z,8.43
2023-01-28T08:14:42.077Z,6.97
2023-01-28T08:17:30.053Z,8.75
2023-01-28T08:20:18.636Z,9.63
2023-01-28T08:23:09.213Z,9.10
2023-01-28T08:26:00.143Z,9.82
2023-01-28T08:28:51.526Z,8.98
2023-01-28T08:31:39.976Z,9.15
2023-01-28T08:34:27.912Z,8.80
2023-01-28T08:37:15.873Z,7.22
2023-01-28T08:40:05.783Z,5.85
2023-01-28T08:42:54.992Z,4.85
2023-01-28T08:45:43.449Z,7.18
2023-01-28T08:48:31.287Z,7.93
2023-01-28T08:51:19.197Z,5.47
2023-01-28T08:54:07.171Z,4.55
2023-01-28T08:56:56.943Z,4.43
2023-01-28T08:59:46.173Z,5.45
2023-01-28T09:02:34.054Z,4.60
2023-01-28T09:05:22.741Z,4.07
2023-01-28T09:08:13.062Z,4.07
2023-01-28T09:11:01.461Z,4.07
2023-01-28T09:13:50.666Z,3.35
2023-01-28T09:16:38.426Z,3.55
2023-01-28T09:19:29.342Z,3.00
2023-01-28T09:22:17.199Z,4.03
2023-01-28T09:25:05.937Z,3.40
2023-01-28T09:27:53.962Z,4.97
2023-01-28T09:30:43.294Z,3.58
2023-01-28T09:33:31.338Z,3.35
2023-01-28T09:36:19.069Z,4.25
2023-01-28T09:39:08.228Z,4.18
2023-01-28T09:42:13.435Z,4.70
2023-01-28T09:45:11.075Z,2.40
2023-01-28T09:48:03.152Z,3.90
2023-01-28T09:50:54.338Z,2.67
2023-01-28T09:53:50.001Z,3.88
2023-01-28T09:56:42.645Z,2.70
2023-01-28T09:59:30.898Z,2.43
2023-01-28T10:02:37.640Z,2.08
2023-01-28T10:05:39.227Z,2.22
2023-01-28T10:08:44.505Z,3.70
2023-01-28T10:11:48.570Z,2.30
2023-01-28T10:14:50.940Z,2.40
2023-01-28T10:17:46.604Z,3.97
2023-01-28T10:20:41.791Z,2.45
2023-01-28T10:23:39.694Z,2.25
2023-01-28T10:26:34.780Z,2.30
2023-01-28T10:29:28.258Z,2.58
2023-01-28T10:32:23.873Z,2.47
2023-01-28T10:35:11.580Z,2.60
2023-01-28T10:38:07.534Z,2.60
2023-01-28T10:40:59.305Z,2.20
2023-01-28T10:43:47.993Z,4.20
2023-01-28T10:46:38.174Z,2.05
2023-01-28T10:49:28.533Z,1.85
2023-01-28T10:52:18.514Z,1.67
2023-01-28T10:55:15.354Z,2.03
2023-01-28T10:58:05.543Z,1.83
2023-01-28T11:00:58.222Z,2.30
2023-01-28T11:03:56.668Z,1.85
2023-01-28T11:06:52.567Z,2.30
2023-01-28T11:09:46.002Z,5.28
2023-01-28T11:12:35.422Z,2.28
2023-01-28T11:15:23.584Z,3.70
2023-01-28T11:18:20.217Z,2.50
2023-01-28T11:21:17.301Z,2.47
2023-01-28T11:24:08.312Z,2.30
2023-01-28T11:26:59.314Z,3.20
2023-01-28T11:29:49.291Z,4.03
2023-01-28T11:32:37.849Z,4.05
2023-01-28T11:35:30.176Z,4.38
2023-01-28T11:38:20.427Z,2.55
2023-01-28T11:41:15.999Z,4.18
2023-01-28T11:44:15.307Z,3.33
2023-01-28T11:47:20.313Z,3.65
2023-01-28T11:50:30.500Z,6.80
2023-01-28T11:53:48.807Z,3.33
2023-01-28T11:56:52.265Z,6.68
2023-01-28T11:59:55.995Z,4.38
2023-01-28T12:03:02.186Z,6.72
2023-01-28T12:05:53.715Z,5.13
2023-01-28T12:08:46.798Z,6.85
2023-01-28T12:12:04.791Z,3.90
2023-01-28T12:15:26.348Z,4.18
2023-01-28T12:18:28.539Z,5.63
2023-01-28T12:21:29.638Z,3.20
2023-01-28T12:24:32.948Z,4.18
2023-01-28T12:27:36.225Z,4.45
2023-01-28T12:30:34.760Z,5.28
2023-01-28T12:33:45.762Z,6.50
2023-01-28T12:36:48.515Z,6.47
2023-01-28T12:39:46.815Z,6.38
2023-01-28T12:42:40.080Z,4.68
2023-01-28T12:45:34.258Z,5.05
2023-01-28T12:48:29.900Z,5.30
2023-01-28T12:51:24.732Z,4.90
2023-01-28T12:54:20.332Z,3.80
2023-01-28T12:57:14.520Z,4.20
2023-01-28T13:00:17.047Z,6.05
2023-01-28T13:03:16.469Z,5.47
2023-01-28T13:06:12.729Z,6.25
2023-01-28T13:09:04.402Z,4.30
2023-01-28T13:11:55.457Z,4.30
2023-01-28T13:14:43.903Z,7.47
2023-01-28T13:17:33.628Z,5.68
2023-01-28T13:20:37.926Z,5.57
2023-01-28T13:23:36.998Z,5.22
2023-01-28T13:26:42.795Z,6.38
2023-01-28T13:29:34.287Z,5.05
2023-01-28T13:32:32.261Z,4.20
2023-01-28T13:35:31.826Z,6.57
2023-01-28T13:38:21.873Z,5.53
2023-01-28T13:41:10.825Z,4.75
2023-01-28T13:44:01.194Z,4.25
2023-01-28T13:46:49.278Z,4.45
2023-01-28T13:49:41.311Z,3.63
2023-01-28T13:52:32.755Z,3.93
2023-01-28T13:55:42.441Z,4.68
2023-01-28T13:59:11.492Z,5.22
2023-01-28T14:02:28.249Z,3.90
2023-01-28T14:05:46.483Z,6.50
2023-01-28T14:09:08.358Z,4.57
2023-01-28T14:12:34.024Z,4.32
2023-01-28T14:15:53.208Z,5.75
2023-01-28T14:18:44.441Z,5.95
2023-01-28T14:21:36.128Z,5.97
2023-01-28T14:24:24.328Z,7.47
2023-01-28T14:27:19.703Z,7.70
2023-01-28T14:30:16.960Z,6.03
2023-01-28T14:33:10.400Z,7.35
2023-01-28T14:35:59.027Z,7.82
2023-01-28T14:38:48.291Z,5.50
2023-01-28T14:41:37.128Z,5.85
2023-01-28T14:44:34.166Z,6.32
2023-01-28T14:47:49.255Z,11.98
2023-01-28T14:51:03.147Z,7.32
2023-01-28T14:54:28.451Z,9.15
2023-01-28T14:57:46.386Z,9.50
2023-01-28T15:00:36.703Z,8.15
2023-01-28T15:03:25.629Z,8.45
2023-01-28T15:06:20.292Z,7.88
2023-01-28T15:09:10.543Z,7.13
2023-01-28T15:12:01.323Z,6.80
2023-01-28T15:14:50.002Z,5.25
2023-01-28T15:17:38.986Z,7.82
2023-01-28T15:20:28.679Z,8.43
2023-01-28T15:23:21.882Z,7.80
2023-01-28T15:26:18.298Z,6.75
2023-01-28T15:29:06.048Z,8.85
2023-01-28T15:31:54.551Z,11.15
2023-01-28T15:34:47.217Z,10.55
2023-01-28T15:37:36.653Z,13.60
2023-01-28T15:40:28.684Z,15.75
2023-01-28T15:43:21.830Z,13.80
2023-01-28T15:46:13.725Z,12.52
2023-01-28T15:49:04.498Z,10.27
2023-01-28T15:51:52.632Z,6.90
2023-01-28T15:54:42.937Z,7.93
2023-01-28T15:57:35.338Z,7.65
2023-01-28T16:00:26.094Z,7.68
2023-01-28T16:03:21.979Z,8.98
2023-01-28T16:06:16.721Z,8.18
2023-01-28T16:09:08.716Z,6.85
2023-01-28T16:12:04.222Z,11.05
2023-01-28T16:14:58.066Z,7.65
2023-01-28T16:17:52.522Z,5.97
2023-01-28T16:20:40.245Z,7.35
2023-01-28T16:23:30.017Z,5.63
2023-01-28T16:26:23.995Z,7.28
2023-01-28T16:29:17.121Z,6.45
2023-01-28T16:32:29.912Z,5.55
2023-01-28T16:35:21.870Z,6.47
2023-01-28T16:38:10.194Z,7.43
2023-01-28T16:41:00.420Z,7.57
2023-01-28T16:43:49.187Z,6.50
2023-01-28T16:46:37.914Z,5.82
2023-01-28T16:49:26.954Z,7.55
2023-01-28T16:52:14.925Z,7.78
2023-01-28T16:55:02.773Z,8.02
2023-01-28T16:57:54.715Z,7.97
2023-01-28T17:00:42.290Z,5.60
2023-01-28T17:03:29.873Z,8.40
2023-01-28T17:06:21.383Z,7.07
2023-01-28T17:09:09.935Z,6.95
2023-01-28T17:11:58.031Z,7.22
2023-01-28T17:14:45.702Z,8.52
2023-01-28T17:17:35.747Z,8.57
2023-01-28T17:20:23.744Z,8.05
2023-01-28T17:23:17.427Z,8.98
2023-01-28T17:26:07.072Z,8.82
2023-01-28T17:28:56.310Z,8.13
2023-01-28T17:31:44.268Z,8.30
2023-01-28T17:34:32.370Z,8.80
2023-01-28T17:37:20.192Z,9.38
2023-01-28T17:40:12.534Z,10.20
2023-01-28T17:43:06.462Z,8.80
2023-01-28T17:45:56.322Z,10.30
2023-01-28T17:48:46.076Z,8.68
2023-01-28T17:51:37.292Z,7.30
2023-01-28T17:54:26.440Z,8.85
2023-01-28T17:57:15.637Z,11.55
2023-01-28T18:00:03.430Z,8.57
2023-01-28T18:02:52.458Z,10.77
2023-01-28T18:05:40.205Z,8.10
2023-01-28T18:08:30.449Z,8.73
2023-01-28T18:11:21.041Z,8.13
2023-01-28T18:14:10.613Z,9.77
2023-01-28T18:16:58.127Z,8.63
2023-01-28T18:19:45.484Z,10.70
2023-01-28T18:22:33.426Z,10.70
2023-01-28T18:25:21.484Z,7.72
2023-01-28T18:28:09.032Z,10.10
2023-01-28T18:31:06.114Z,8.88
2023-01-28T18:33:53.805Z,12.57
2023-01-28T18:36:42.137Z,10.65
2023-01-28T18:40:00.312Z,13.35
2023-01-28T18:44:21.229Z,10.25
2023-01-28T18:47:39.511Z,10.63
2023-01-28T18:54:21.705Z,14.05
2023-01-28T18:57:10.785Z,10.95
2023-01-28T19:00:04.183Z,10.88
2023-01-28T19:02:53.497Z,11.70
2023-01-28T19:05:52.072Z,8.95
2023-01-28T19:09:23.299Z,9.85
2023-01-28T19:12:16.396Z,9.65
2023-01-28T19:15:11.490Z,7.82
2023-01-28T19:18:12.502Z,8.27
2023-01-28T19:21:16.325Z,7.32
2023-01-28T19:24:17.381Z,9.93
2023-01-28T19:27:14.548Z,8.02
2023-01-28T19:30:12.580Z,7.18
2023-01-28T19:33:07.163Z,7.88
2023-01-28T19:36:30.217Z,8.00
2023-01-28T19:39:21.761Z,9.35
2023-01-28T19:42:19.852Z,7.50
2023-01-28T19:45:26.378Z,12.65
2023-01-28T19:48:47.886Z,12.65
2023-01-28T19:51:44.506Z,8.55
2023-01-28T19:55:30.443Z,8.70
2023-01-28T19:58:21.973Z,9.23
2023-01-28T20:01:12.476Z,8.35
2023-01-28T20:04:02.211Z,7.10
2023-01-28T20:06:54.283Z,9.40
2023-01-28T20:09:54.083Z,8.03
2023-01-28T20:12:52.252Z,9.23
2023-01-28T20:15:49.001Z,9.27
2023-01-28T20:18:42.465Z,7.20
2023-01-28T20:21:34.884Z,6.75
2023-01-28T20:24:24.245Z,8.43
2023-01-28T20:27:15.097Z,6.93
2023-01-28T20:30:07.818Z,6.30
2023-01-28T20:35:53.706Z,6.10
2023-01-28T20:38:56.666Z,10.23
2023-01-28T20:41:58.014Z,6.90
2023-01-28T20:44:49.065Z,7.82
2023-01-28T20:47:57.055Z,6.85
2023-01-28T20:55:08.047Z,8.95
2023-01-28T20:57:59.515Z,7.28
2023-01-28T21:00:50.531Z,7.00
2023-01-28T21:03:40.214Z,9.65
2023-01-28T21:06:30.198Z,8.32
2023-01-28T21:09:18.333Z,7.13
2023-01-28T21:16:15.569Z,9.00
2023-01-28T21:19:03.767Z,7.10
2023-01-28T21:21:51.437Z,6.93
2023-01-28T21:24:39.436Z,7.95
2023-01-28T21:27:27.518Z,8.45
2023-01-28T21:30:19.730Z,7.53
2023-01-28T21:33:11.721Z,7.80
2023-01-28T21:36:02.416Z,9.10
2023-01-28T21:38:55.838Z,6.50
2023-01-28T21:41:45.984Z,5.78
2023-01-28T21:44:36.777Z,5.00
2023-01-28T21:47:27.013Z,5.60
2023-01-28T21:50:24.613Z,8.18
2023-01-28T21:53:25.093Z,6.93
2023-01-28T21:56:14.749Z,8.35
2023-01-28T21:59:22.348Z,5.93
2023-01-28T22:02:15.846Z,9.60
2023-01-28T22:05:06.873Z,6.75
2023-01-28T22:07:58.565Z,7.00
2023-01-28T22:10:48.653Z,6.53
2023-01-28T22:13:37.887Z,6.30
2023-01-28T22:16:31.093Z,7.60
2023-01-28T22:19:24.333Z,6.70
2023-01-28T22:22:19.536Z,9.40
2023-01-28T22:25:09.830Z,8.60
2023-01-28T22:27:57.472Z,9.13
2023-01-28T22:30:45.916Z,8.13
2023-01-28T22:33:36.365Z,8.63
2023-01-28T22:36:24.728Z,9.00
2023-01-28T22:39:17.984Z,9.10
2023-01-28T22:45:00.015Z,7.93
2023-01-28T22:47:49.597Z,7.78
2023-01-28T22:50:41.074Z,8.75
2023-01-28T22:53:31.860Z,9.77
2023-01-28T22:56:23.108Z,9.32
2023-01-28T22:59:12.908Z,6.60
2023-01-28T23:02:01.969Z,9.35
2023-01-28T23:04:51.622Z,8.90
2023-01-28T23:07:41.350Z,8.82
2023-01-28T23:10:33.954Z,7.18
2023-01-28T23:13:25.175Z,8.18
2023-01-28T23:16:33.680Z,8.10
2023-01-28T23:19:38.659Z,6.90
2023-01-28T23:22:48.687Z,9.05
2023-01-28T23:25:37.635Z,7.25
2023-01-28T23:28:29.213Z,6.25
2023-01-28T23:31:21.888Z,8.65
2023-01-28T23:34:10.841Z,6.75
2023-01-28T23:36:59.975Z,7.80
2023-01-28T23:39:48.897Z,9.32
2023-01-28T23:42:37.883Z,8.40
2023-01-28T23:45:26.855Z,6.80
2023-01-28T23:48:17.136Z,5.28
2023-01-28T23:51:09.298Z,6.13
2023-01-28T23:53:58.701Z,8.05
2023-01-28T23:56:47.650Z,8.88
2023-01-28T23:59:38.543Z,6.35
